createdAt,value
2022-11-06T00:00:25.123Z,101259.44
2022-11-06T00:02:50.721Z,101254.47
2022-11-06T00:05:36.273Z,101251.72
2022-11-06T00:08:01.819Z,101248.13
2022-11-06T00:10:28.905Z,101247.00
2022-11-06T00:12:54.454Z,101250.88
2022-11-06T00:15:19.997Z,101247.28
2022-11-06T00:17:47.583Z,101248.13
2022-11-06T00:20:13.125Z,101248.94
2022-11-06T00:22:38.674Z,101245.34
2022-11-06T00:25:04.525Z,101247.28
2022-11-06T00:27:30.077Z,101254.47
2022-11-06T00:29:55.621Z,101246.19
2022-11-06T00:32:21.179Z,101242.59
2022-11-06T00:34:46.910Z,101244.22
2022-11-06T00:37:12.586Z,101237.06
2022-11-06T00:39:38.128Z,101233.16
2022-11-06T00:42:03.929Z,101226.81
2022-11-06T00:44:29.477Z,101222.38
2022-11-06T00:46:55.031Z,101218.50
2022-11-06T00:49:20.569Z,101222.38
2022-11-06T00:51:46.120Z,101233.16
2022-11-06T00:54:11.912Z,101225.97
2022-11-06T00:56:37.620Z,101222.38
2022-11-06T00:59:04.425Z,101219.63
2022-11-06T01:01:31.028Z,101217.69
2022-11-06T01:03:57.674Z,101226.81
2022-11-06T01:06:24.333Z,101224.03
2022-11-06T01:08:50.057Z,101229.56
2022-11-06T01:11:17.134Z,101229.56
2022-11-06T01:13:42.711Z,101229.56
2022-11-06T01:16:09.243Z,101225.16
2022-11-06T01:18:35.646Z,101225.97
2022-11-06T01:21:03.146Z,101224.34
2022-11-06T01:23:28.690Z,101222.38
2022-11-06T01:25:56.151Z,101218.50
2022-11-06T01:28:21.697Z,101225.97
2022-11-06T01:30:47.244Z,101216.56
2022-11-06T01:33:12.784Z,101218.50
2022-11-06T01:35:43.344Z,101216.84
2022-11-06T01:38:08.901Z,101218.81
2022-11-06T01:40:42.342Z,101209.63
2022-11-06T01:43:10.613Z,101206.88
2022-11-06T01:45:37.268Z,101208.56
2022-11-06T01:48:02.847Z,101205.78
2022-11-06T01:50:28.412Z,101201.91
2022-11-06T01:52:54.148Z,101199.13
2022-11-06T01:55:22.519Z,101193.91
2022-11-06T01:57:48.086Z,101194.44
2022-11-06T02:00:13.712Z,101195.53
2022-11-06T02:02:39.408Z,101193.91
2022-11-06T02:05:05.330Z,101190.00
2022-11-06T02:07:30.872Z,101190.00
2022-11-06T02:09:56.428Z,101182.81
2022-11-06T02:12:41.846Z,101188.38
2022-11-06T02:15:11.668Z,101194.72
2022-11-06T02:17:48.157Z,101188.38
2022-11-06T02:20:17.671Z,101182.53
2022-11-06T02:22:50.912Z,101181.16
2022-11-06T02:25:28.497Z,101182.81
2022-11-06T02:27:57.451Z,101181.72
2022-11-06T02:30:22.998Z,101179.19
2022-11-06T02:33:04.959Z,101180.06
2022-11-06T02:35:32.255Z,101179.50
2022-11-06T02:37:59.562Z,101168.13
2022-11-06T02:40:25.816Z,101170.91
2022-11-06T02:42:52.635Z,101176.44
2022-11-06T02:45:18.185Z,101165.38
2022-11-06T02:47:44.223Z,101159.00
2022-11-06T02:50:11.408Z,101149.06
2022-11-06T02:52:38.609Z,101144.91
2022-11-06T02:55:08.946Z,101151.53
2022-11-06T02:57:35.470Z,101157.06
2022-11-06T03:00:03.067Z,101150.72
2022-11-06T03:02:30.152Z,101154.31
2022-11-06T03:05:13.212Z,101153.47
2022-11-06T03:07:42.569Z,101141.59
2022-11-06T03:10:08.121Z,101138.81
2022-11-06T03:12:37.642Z,101136.88
2022-11-06T03:15:06.372Z,101134.09
2022-11-06T03:17:37.750Z,101132.16
2022-11-06T03:20:16.183Z,101136.06
2022-11-06T03:22:51.682Z,101135.78
2022-11-06T03:25:21.651Z,101143.22
2022-11-06T03:27:49.807Z,101143.22
2022-11-06T03:30:16.925Z,101142.97
2022-11-06T03:32:50.389Z,101143.22
2022-11-06T03:35:35.164Z,101153.22
2022-11-06T03:38:20.583Z,101152.66
2022-11-06T03:40:46.802Z,101153.47
2022-11-06T03:43:12.903Z,101160.69
2022-11-06T03:45:38.640Z,101156.53
2022-11-06T03:48:13.437Z,101151.81
2022-11-06T03:50:40.284Z,101156.25
2022-11-06T03:53:09.909Z,101150.44
2022-11-06T03:55:38.918Z,101140.47
2022-11-06T03:58:05.690Z,101147.13
2022-11-06T04:00:32.020Z,101139.63
2022-11-06T04:03:03.892Z,101124.97
2022-11-06T04:05:30.957Z,101139.63
2022-11-06T04:08:16.629Z,101134.09
2022-11-06T04:11:03.273Z,101126.63
2022-11-06T04:13:49.119Z,101130.25
2022-11-06T04:16:14.666Z,101133.03
2022-11-06T04:18:40.211Z,101132.16
2022-11-06T04:21:27.922Z,101125.81
2022-11-06T04:24:22.449Z,101113.91
2022-11-06T04:32:27.095Z,101106.44
2022-11-06T04:35:02.720Z,101113.66
2022-11-06T04:37:48.142Z,101102.84
2022-11-06T04:40:17.784Z,101102.84
2022-11-06T04:42:49.751Z,101098.13
2022-11-06T04:45:16.711Z,101102.59
2022-11-06T04:47:42.439Z,101090.13
2022-11-06T04:50:07.987Z,101089.00
2022-11-06T04:52:33.525Z,101076.00
2022-11-06T04:54:59.083Z,101068.81
2022-11-06T04:57:24.621Z,101066.88
2022-11-06T04:59:50.171Z,101058.56
2022-11-06T05:02:15.762Z,101041.97
2022-11-06T05:04:41.362Z,101041.16
2022-11-06T05:07:06.906Z,101041.97
2022-11-06T05:09:32.472Z,101043.91
2022-11-06T05:11:58.030Z,101036.44
2022-11-06T05:14:23.577Z,101030.09
2022-11-06T05:16:49.118Z,101024.25
2022-11-06T05:19:14.672Z,101026.19
2022-11-06T05:22:00.119Z,101027.31
2022-11-06T05:24:25.681Z,101025.38
2022-11-06T05:26:56.144Z,101019.03
2022-11-06T05:29:24.589Z,101020.97
2022-11-06T05:31:50.134Z,101020.97
2022-11-06T05:34:15.687Z,101013.47
2022-11-06T05:36:41.232Z,101007.13
2022-11-06T05:39:06.980Z,101014.59
2022-11-06T05:41:32.523Z,101026.50
2022-11-06T05:43:58.179Z,101020.13
2022-11-06T05:46:46.985Z,101009.91
2022-11-06T05:49:09.257Z,101010.72
2022-11-06T05:51:35.065Z,101004.34
2022-11-06T05:54:00.634Z,100998.81
2022-11-06T05:56:26.173Z,101007.13
2022-11-06T05:58:51.721Z,101001.59
2022-11-06T06:01:17.266Z,100999.66
2022-11-06T06:03:42.815Z,100998.81
2022-11-06T06:06:08.359Z,101001.59
2022-11-06T06:08:33.908Z,100990.53
2022-11-06T06:10:59.440Z,100992.47
2022-11-06T06:13:24.987Z,100991.66
2022-11-06T06:15:50.536Z,100983.34
2022-11-06T06:18:16.368Z,100971.16
2022-11-06T06:20:42.088Z,100973.09
2022-11-06T06:23:09.670Z,100971.16
2022-11-06T06:25:35.376Z,100971.16
2022-11-06T06:28:00.913Z,100966.75
2022-11-06T06:30:26.465Z,100968.41
2022-11-06T06:32:52.022Z,100973.09
2022-11-06T06:35:17.633Z,100979.47
2022-11-06T06:37:49.436Z,100982.22
2022-11-06T06:40:14.989Z,100988.88
2022-11-06T06:42:40.522Z,100984.16
2022-11-06T06:45:06.081Z,100982.22
2022-11-06T06:47:31.629Z,100998.81
2022-11-06T06:49:57.183Z,101001.59
2022-11-06T06:52:22.729Z,101002.72
2022-11-06T06:54:48.289Z,101000.78
2022-11-06T06:57:13.830Z,100991.66
2022-11-06T06:59:39.382Z,100999.66
2022-11-06T07:02:05.229Z,100998.00
2022-11-06T07:04:30.833Z,100995.25
2022-11-06T07:06:56.392Z,100997.19
2022-11-06T07:09:23.062Z,100998.81
2022-11-06T07:11:48.603Z,100996.06
2022-11-06T07:14:14.163Z,100986.13
2022-11-06T07:16:39.707Z,101000.78
2022-11-06T07:19:05.258Z,100989.72
2022-11-06T07:21:30.802Z,101000.78
2022-11-06T07:23:56.354Z,100997.19
2022-11-06T07:26:21.893Z,101001.59
2022-11-06T07:28:47.463Z,101000.78
2022-11-06T07:31:13.055Z,100996.38
2022-11-06T07:33:38.603Z,101000.78
2022-11-06T07:36:04.840Z,100990.81
2022-11-06T07:38:31.835Z,100991.66
2022-11-06T07:41:00.032Z,101000.78
2022-11-06T07:43:26.904Z,100997.19
2022-11-06T07:45:52.453Z,100989.97
2022-11-06T07:48:17.997Z,100988.88
2022-11-06T07:50:43.550Z,100999.13
2022-11-06T07:53:09.110Z,100994.41
2022-11-06T07:55:39.168Z,100985.28
2022-11-06T07:58:07.451Z,100998.28
2022-11-06T08:00:32.998Z,100985.28
2022-11-06T08:02:58.552Z,100983.63
2022-11-06T08:05:24.101Z,100982.53
2022-11-06T08:07:54.701Z,100974.50
2022-11-06T08:10:20.271Z,100982.53
2022-11-06T08:12:45.817Z,100980.03
2022-11-06T08:15:11.354Z,100974.22
2022-11-06T08:17:36.899Z,100982.53
2022-11-06T08:20:02.629Z,100977.00
2022-11-06T08:22:28.162Z,100980.59
2022-11-06T08:24:53.715Z,100973.38
2022-11-06T08:27:19.268Z,100977.25
2022-11-06T08:29:44.824Z,100979.75
2022-11-06T08:32:10.372Z,100971.47
2022-11-06T08:34:36.015Z,100963.44
2022-11-06T08:37:01.616Z,100956.78
2022-11-06T08:39:27.174Z,100963.16
2022-11-06T08:41:52.715Z,100957.63
2022-11-06T08:44:18.265Z,100944.88
2022-11-06T08:46:47.883Z,100952.09
2022-11-06T08:49:17.217Z,100948.47
2022-11-06T08:51:42.771Z,100941.28
2022-11-06T08:54:09.322Z,100940.47
2022-11-06T08:56:34.924Z,100936.59
2022-11-06T08:59:00.531Z,100939.09
2022-11-06T09:01:26.292Z,100937.41
2022-11-06T09:03:51.993Z,100931.34
2022-11-06T09:06:17.539Z,100924.44
2022-11-06T09:08:43.138Z,100919.16
2022-11-06T09:11:09.928Z,100921.09
2022-11-06T09:13:35.618Z,100910.03
2022-11-06T09:16:01.319Z,100903.69
2022-11-06T09:18:26.930Z,100907.28
2022-11-06T09:20:54.495Z,100908.09
2022-11-06T09:23:20.055Z,100898.16
2022-11-06T09:25:45.600Z,100899.78
2022-11-06T09:28:11.149Z,100899.78
2022-11-06T09:30:36.705Z,100887.91
2022-11-06T09:33:02.385Z,100887.09
2022-11-06T09:35:28.823Z,100876.84
2022-11-06T09:37:54.363Z,100872.13
2022-11-06T09:42:57.542Z,100868.53
2022-11-06T09:45:23.998Z,100873.25
2022-11-06T09:47:51.286Z,100866.59
2022-11-06T09:50:18.039Z,100869.38
2022-11-06T09:52:44.964Z,100853.88
2022-11-06T09:55:15.629Z,100858.59
2022-11-06T09:58:01.485Z,100863.00
2022-11-06T10:00:27.030Z,100859.41
2022-11-06T10:03:00.351Z,100863.81
2022-11-06T10:05:35.292Z,100861.06
2022-11-06T10:08:02.249Z,100848.34
2022-11-06T10:10:29.521Z,100854.41
2022-11-06T10:13:01.433Z,100844.47
2022-11-06T10:15:28.115Z,100844.47
2022-11-06T10:17:57.007Z,100834.53
2022-11-06T10:20:27.456Z,100829.81
2022-11-06T10:23:13.036Z,100834.53
2022-11-06T10:25:42.825Z,100829.81
2022-11-06T10:28:14.335Z,100827.88
2022-11-06T10:30:44.324Z,100836.16
2022-11-06T10:33:12.862Z,100818.75
2022-11-06T10:35:40.749Z,100815.16
2022-11-06T10:38:09.065Z,100810.44
2022-11-06T10:40:34.602Z,100815.16
2022-11-06T10:43:05.033Z,100795.78
2022-11-06T10:45:30.572Z,100791.06
2022-11-06T10:48:02.660Z,100793.03
2022-11-06T10:50:32.092Z,100790.25
2022-11-06T10:52:59.171Z,100781.97
2022-11-06T10:55:30.008Z,100777.25
2022-11-06T10:57:57.781Z,100770.88
2022-11-06T11:00:23.510Z,100784.72
2022-11-06T11:02:51.061Z,100779.19
2022-11-06T11:05:17.227Z,100772.84
2022-11-06T11:07:43.182Z,100751.53
2022-11-06T11:10:24.934Z,100764.53
2022-11-06T11:12:51.431Z,100748.75
2022-11-06T11:15:17.602Z,100745.16
2022-11-06T11:17:43.148Z,100755.13
2022-11-06T11:20:28.585Z,100746.00
2022-11-06T11:23:04.015Z,100749.88
2022-11-06T11:25:29.619Z,100743.22
2022-11-06T11:27:55.158Z,100730.53
2022-11-06T11:30:22.786Z,100738.81
2022-11-06T11:32:48.732Z,100734.09
2022-11-06T11:35:15.642Z,100740.47
2022-11-06T11:37:41.195Z,100731.34
2022-11-06T11:40:26.617Z,100723.88
2022-11-06T11:42:52.162Z,100707.56
2022-11-06T11:45:19.187Z,100698.16
2022-11-06T11:47:46.526Z,100698.16
2022-11-06T11:50:28.495Z,100683.50
2022-11-06T11:52:55.959Z,100676.00
2022-11-06T11:55:22.770Z,100663.31
2022-11-06T11:57:49.144Z,100658.59
2022-11-06T12:00:16.606Z,100643.63
2022-11-06T12:02:42.984Z,100648.34
2022-11-06T12:05:16.317Z,100637.28
2022-11-06T12:07:46.252Z,100619.88
2022-11-06T12:10:31.948Z,100620.69
2022-11-06T12:12:57.759Z,100625.41
2022-11-06T12:15:29.368Z,100611.56
2022-11-06T12:18:02.990Z,100608.81
2022-11-06T12:20:39.805Z,100617.09
2022-11-06T12:23:05.717Z,100597.72
2022-11-06T12:25:39.226Z,100594.16
2022-11-06T12:28:05.434Z,100603.53
2022-11-06T12:30:32.147Z,100608.81
2022-11-06T12:32:59.760Z,100606.03
2022-11-06T12:35:29.444Z,100590.56
2022-11-06T12:38:15.825Z,100569.25
2022-11-06T12:40:44.430Z,100577.56
2022-11-06T12:43:12.471Z,100572.84
2022-11-06T12:45:43.158Z,100559.81
2022-11-06T12:48:28.581Z,100559.81
2022-11-06T12:50:58.050Z,100556.25
2022-11-06T12:53:27.423Z,100567.31
2022-11-06T12:55:57.369Z,100570.88
2022-11-06T12:58:28.048Z,100573.66
2022-11-06T13:01:04.085Z,100559.00
2022-11-06T13:03:49.564Z,100556.25
2022-11-06T13:06:22.513Z,100553.47
2022-11-06T13:08:54.075Z,100547.94
2022-11-06T13:11:39.495Z,100562.59
2022-11-06T13:14:09.870Z,100555.41
2022-11-06T13:16:54.044Z,100543.22
2022-11-06T13:19:38.448Z,100553.47
2022-11-06T13:22:07.215Z,100544.03
2022-11-06T13:24:37.003Z,100539.63
2022-11-06T13:27:08.618Z,100559.00
2022-11-06T13:29:34.613Z,100559.00
2022-11-06T13:32:00.966Z,100555.41
2022-11-06T13:34:30.122Z,100570.06
2022-11-06T13:36:55.666Z,100552.66
2022-11-06T13:39:25.614Z,100550.72
2022-11-06T13:41:51.833Z,100555.41
2022-11-06T13:44:17.405Z,100547.13
2022-11-06T13:49:43.778Z,100539.63
2022-11-06T13:52:19.588Z,100531.34
2022-11-06T13:55:05.026Z,100534.09
2022-11-06T13:57:34.211Z,100532.16
2022-11-06T14:00:05.369Z,100526.63
2022-11-06T14:02:36.946Z,100523.03
2022-11-06T14:05:19.381Z,100522.22
2022-11-06T14:07:44.916Z,100513.94
2022-11-06T14:10:29.505Z,100519.47
2022-11-06T14:12:55.046Z,100526.94
2022-11-06T14:15:23.329Z,100523.03
2022-11-06T14:17:56.043Z,100525.00
2022-11-06T14:20:37.205Z,100531.34
2022-11-06T14:23:22.642Z,100514.75
2022-11-06T14:26:08.063Z,100529.41
2022-11-06T14:28:36.257Z,100526.94
2022-11-06T14:31:23.692Z,100534.09
2022-11-06T14:36:27.412Z,100525.00
2022-11-06T14:38:52.965Z,100528.56
2022-11-06T14:44:25.079Z,100510.34
2022-11-06T14:46:51.092Z,100514.75
2022-11-06T14:49:22.658Z,100502.03
2022-11-06T14:51:56.219Z,100506.44
2022-11-06T14:54:22.391Z,100509.50
2022-11-06T14:56:51.554Z,100505.63
2022-11-06T14:59:27.807Z,100503.97
2022-11-06T15:01:57.817Z,100502.88
2022-11-06T15:04:23.584Z,100510.34
2022-11-06T15:06:49.919Z,100507.56
2022-11-06T15:11:58.687Z,100513.09
2022-11-06T15:17:01.929Z,100521.41
2022-11-06T15:19:28.022Z,100533.28
2022-11-06T15:22:13.452Z,100526.94
2022-11-06T15:24:42.702Z,100542.69
2022-11-06T15:27:11.291Z,100549.06
2022-11-06T15:29:37.298Z,100535.25
2022-11-06T15:32:03.760Z,100530.53
2022-11-06T15:34:30.508Z,100532.47
2022-11-06T15:36:58.163Z,100538.81
2022-11-06T15:39:32.458Z,100545.16
2022-11-06T15:41:57.997Z,100542.69
2022-11-06T15:44:23.554Z,100531.34
2022-11-06T15:46:53.213Z,100529.69
2022-11-06T15:49:19.169Z,100537.16
2022-11-06T15:51:53.023Z,100526.09
2022-11-06T15:54:38.536Z,100513.94
2022-11-06T15:57:05.522Z,100486.25
2022-11-06T15:59:31.455Z,100443.94
2022-11-06T16:01:57.094Z,100423.75
2022-11-06T16:04:23.611Z,100385.00
2022-11-06T16:06:49.235Z,100380.34
2022-11-06T16:09:16.380Z,100393.31
2022-11-06T16:11:42.563Z,100411.56
2022-11-06T16:14:09.502Z,100384.19
2022-11-06T16:16:36.780Z,100392.50
2022-11-06T16:19:02.970Z,100416.28
2022-11-06T16:21:30.425Z,100418.22
2022-11-06T16:23:58.501Z,100414.63
2022-11-06T16:26:25.779Z,100409.91
2022-11-06T16:28:51.803Z,100404.38
2022-11-06T16:31:18.364Z,100404.38
2022-11-06T16:34:00.322Z,100400.50
2022-11-06T16:36:26.908Z,100393.31
2022-11-06T16:38:52.663Z,100412.69
2022-11-06T16:41:38.774Z,100407.16
2022-11-06T16:44:23.562Z,100408.00
2022-11-06T16:47:13.360Z,100394.16
2022-11-06T16:49:39.490Z,100389.72
2022-11-06T16:52:24.927Z,100406.31
2022-11-06T16:54:51.518Z,100405.22
2022-11-06T16:57:18.466Z,100406.31
2022-11-06T16:59:44.214Z,100400.78
2022-11-06T17:02:18.620Z,100402.75
2022-11-06T17:04:44.239Z,100403.56
2022-11-06T17:07:12.159Z,100387.78
2022-11-06T17:09:37.715Z,100383.38
2022-11-06T17:12:08.507Z,100387.28
2022-11-06T17:14:34.118Z,100377.84
2022-11-06T17:16:59.970Z,100372.31
2022-11-06T17:19:26.020Z,100370.38
2022-11-06T17:21:51.558Z,100375.91
2022-11-06T17:27:02.870Z,100358.47
2022-11-06T17:29:28.419Z,100354.91
2022-11-06T17:31:54.967Z,100352.13
2022-11-06T17:34:20.522Z,100343.84
2022-11-06T17:36:46.065Z,100338.31
2022-11-06T17:39:11.621Z,100333.59
2022-11-06T17:41:37.162Z,100317.00
2022-11-06T17:44:03.851Z,100298.75
2022-11-06T17:46:31.691Z,100295.69
2022-11-06T17:48:57.606Z,100296.00
2022-11-06T17:51:43.167Z,100310.66
2022-11-06T17:54:08.914Z,100320.06
2022-11-06T17:56:37.978Z,100323.66
2022-11-06T17:59:03.856Z,100330.00
2022-11-06T18:01:29.652Z,100325.28
2022-11-06T18:03:55.267Z,100318.13
2022-11-06T18:06:20.805Z,100324.47
2022-11-06T18:08:46.362Z,100333.59
2022-11-06T18:11:11.995Z,100350.50
2022-11-06T18:13:37.543Z,100340.25
2022-11-06T18:16:03.386Z,100342.22
2022-11-06T18:18:28.932Z,100332.78
2022-11-06T18:20:54.470Z,100326.44
2022-11-06T18:23:20.014Z,100322.84
2022-11-06T18:25:53.930Z,100333.91
2022-11-06T18:28:19.856Z,100336.66
2022-11-06T18:30:45.605Z,100325.59
2022-11-06T18:33:11.146Z,100334.72
2022-11-06T18:35:36.704Z,100331.97
2022-11-06T18:38:02.553Z,100322.84
2022-11-06T18:40:28.102Z,100320.06
2022-11-06T18:42:54.185Z,100329.19
2022-11-06T18:45:19.787Z,100331.97
2022-11-06T18:47:45.325Z,100335.00
2022-11-06T18:50:10.871Z,100324.75
2022-11-06T18:52:56.336Z,100328.38
2022-11-06T18:55:21.936Z,100333.91
2022-11-06T18:57:47.478Z,100332.25
2022-11-06T19:00:13.313Z,100330.28
2022-11-06T19:02:39.191Z,100342.22
2022-11-06T19:05:05.087Z,100336.09
2022-11-06T19:07:30.667Z,100350.50
2022-11-06T19:09:56.213Z,100346.06
2022-11-06T19:12:21.792Z,100349.66
2022-11-06T19:14:47.342Z,100362.66
2022-11-06T19:17:12.884Z,100359.91
2022-11-06T19:19:38.439Z,100357.13
2022-11-06T19:22:03.990Z,100352.41
2022-11-06T19:24:29.542Z,100360.72
2022-11-06T19:26:55.099Z,100357.13
2022-11-06T19:29:20.657Z,100356.28
2022-11-06T19:31:46.198Z,100350.75
2022-11-06T19:34:11.819Z,100356.28
2022-11-06T19:36:37.445Z,100363.75
2022-11-06T19:39:03.314Z,100356.28
2022-11-06T19:41:28.912Z,100356.28
2022-11-06T19:43:54.466Z,100359.91
2022-11-06T19:46:25.070Z,100359.06
2022-11-06T19:48:52.658Z,100361.81
2022-11-06T19:51:18.233Z,100361.81
2022-11-06T19:53:43.802Z,100365.44
2022-11-06T19:56:09.886Z,100370.13
2022-11-06T19:58:35.438Z,100363.75
2022-11-06T20:01:08.579Z,100372.06
2022-11-06T20:03:34.330Z,100363.75
2022-11-06T20:06:04.857Z,100372.88
2022-11-06T20:08:33.075Z,100380.34
2022-11-06T20:11:06.630Z,100388.66
2022-11-06T20:13:35.503Z,100397.78
2022-11-06T20:16:02.817Z,100405.25
2022-11-06T20:18:28.844Z,100406.06
2022-11-06T20:20:54.398Z,100407.19
2022-11-06T20:23:19.953Z,100413.56
2022-11-06T20:25:45.506Z,100417.13
2022-11-06T20:28:11.048Z,100419.09
2022-11-06T20:30:36.605Z,100416.31
2022-11-06T20:33:02.168Z,100416.31
2022-11-06T20:35:27.897Z,100418.28
2022-11-06T20:37:53.437Z,100416.31
2022-11-06T20:40:18.990Z,100424.63
2022-11-06T20:42:44.844Z,100422.97
2022-11-06T20:45:10.398Z,100421.03
2022-11-06T20:47:35.957Z,100419.09
2022-11-06T20:50:01.512Z,100421.84
2022-11-06T20:52:27.054Z,100422.16
2022-11-06T20:54:52.612Z,100432.41
2022-11-06T20:57:18.157Z,100428.50
2022-11-06T20:59:43.906Z,100435.69
2022-11-06T21:02:10.125Z,100436.81
2022-11-06T21:04:35.772Z,100433.22
2022-11-06T21:07:01.316Z,100445.94
2022-11-06T21:09:26.898Z,100445.09
2022-11-06T21:11:52.437Z,100451.47
2022-11-06T21:14:18.029Z,100450.63
2022-11-06T21:16:43.948Z,100458.94
2022-11-06T21:19:09.503Z,100462.84
2022-11-06T21:21:37.146Z,100462.84
2022-11-06T21:24:03.793Z,100468.38
2022-11-06T21:26:30.109Z,100462.84
2022-11-06T21:28:55.663Z,100469.19
2022-11-06T21:31:22.397Z,100484.97
2022-11-06T21:33:48.538Z,100478.59
2022-11-06T21:36:15.017Z,100487.72
2022-11-06T21:38:40.678Z,100478.59
2022-11-06T21:41:06.792Z,100484.16
2022-11-06T21:43:32.345Z,100490.50
2022-11-06T21:46:01.610Z,100484.97
2022-11-06T21:48:45.081Z,100484.16
2022-11-06T21:51:12.855Z,100492.44
2022-11-06T21:53:58.562Z,100493.25
2022-11-06T21:56:26.213Z,100492.44
2022-11-06T21:58:52.425Z,100487.72
2022-11-06T22:01:18.109Z,100496.84
2022-11-06T22:03:43.743Z,100493.25
2022-11-06T22:06:10.071Z,100497.97
2022-11-06T22:08:36.358Z,100493.25
2022-11-06T22:11:11.315Z,100479.44
2022-11-06T22:13:36.870Z,100489.69
2022-11-06T22:16:02.406Z,100495.22
2022-11-06T22:18:27.956Z,100491.63
2022-11-06T22:20:53.498Z,100505.13
2022-11-06T22:23:19.049Z,100491.63
2022-11-06T22:25:44.586Z,100506.28
2022-11-06T22:28:10.134Z,100496.03
2022-11-06T22:30:35.686Z,100497.97
2022-11-06T22:33:01.238Z,100494.38
2022-11-06T22:35:26.810Z,100498.78
2022-11-06T22:37:52.364Z,100510.97
2022-11-06T22:40:17.975Z,100510.16
2022-11-06T22:42:47.199Z,100520.09
2022-11-06T22:45:15.026Z,100520.09
2022-11-06T22:47:40.737Z,100524.81
2022-11-06T22:50:06.386Z,100522.03
2022-11-06T22:52:31.927Z,100530.34
2022-11-06T22:54:57.495Z,100532.28
2022-11-06T22:57:23.039Z,100528.69
2022-11-06T22:59:48.681Z,100536.97
2022-11-06T23:02:14.291Z,100533.38
2022-11-06T23:04:39.875Z,100530.34
2022-11-06T23:07:05.417Z,100531.44
2022-11-06T23:09:30.971Z,100531.44
2022-11-06T23:11:56.524Z,100529.53
2022-11-06T23:14:22.089Z,100533.38
2022-11-06T23:17:03.561Z,100533.09
2022-11-06T23:19:29.864Z,100531.44
2022-11-06T23:22:15.314Z,100537.81
2022-11-06T23:24:40.882Z,100536.97
2022-11-06T23:27:06.430Z,100539.75
2022-11-06T23:29:31.989Z,100536.97
2022-11-06T23:31:57.531Z,100540.59
2022-11-06T23:34:23.082Z,100548.03
2022-11-06T23:36:48.624Z,100537.81
2022-11-06T23:39:14.174Z,100546.94
2022-11-06T23:41:42.743Z,100540.59
2022-11-06T23:44:28.205Z,100546.94
2022-11-06T23:46:53.743Z,100546.13
2022-11-06T23:49:19.293Z,100542.50
2022-11-06T23:51:44.843Z,100548.03
2022-11-06T23:54:10.394Z,100546.13
2022-11-06T23:56:35.952Z,100550.81
2022-11-06T23:59:01.507Z,100546.94
